sensor_id;sensor_type;location;lat;lon;timestamp;P1;durP1;ratioP1;P2;durP2;ratioP2
80193;SDS011;69515;42.072;21.504;2024-02-15T00:01:10;11.93;;;5.45;;
80193;SDS011;69515;42.072;21.504;2024-02-15T00:03:36;12.25;;;6.60;;
80193;SDS011;69515;42.072;21.504;2024-02-15T00:06:02;9.77;;;5.45;;
80193;SDS011;69515;42.072;21.504;2024-02-15T00:08:29;7.55;;;4.78;;
80193;SDS011;69515;42.072;21.504;2024-02-15T00:10:55;10.85;;;5.30;;
80193;SDS011;69515;42.072;21.504;2024-02-15T00:15:48;8.43;;;4.78;;
80193;SDS011;69515;42.072;21.504;2024-02-15T00:18:15;10.80;;;6.07;;
80193;SDS011;69515;42.072;21.504;2024-02-15T00:20:41;7.88;;;4.80;;
80193;SDS011;69515;42.072;21.504;2024-02-15T00:23:09;8.88;;;5.53;;
80193;SDS011;69515;42.072;21.504;2024-02-15T00:25:35;8.93;;;5.38;;
80193;SDS011;69515;42.072;21.504;2024-02-15T00:28:02;8.98;;;4.95;;
80193;SDS011;69515;42.072;21.504;2024-02-15T00:30:28;7.88;;;4.78;;
80193;SDS011;69515;42.072;21.504;2024-02-15T00:35:20;6.82;;;4.20;;
80193;SDS011;69515;42.072;21.504;2024-02-15T00:40:15;6.90;;;4.00;;
80193;SDS011;69515;42.072;21.504;2024-02-15T00:42:41;6.95;;;4.40;;
80193;SDS011;69515;42.072;21.504;2024-02-15T00:45:07;10.82;;;4.72;;
80193;SDS011;69515;42.072;21.504;2024-02-15T00:47:36;8.13;;;4.72;;
80193;SDS011;69515;42.072;21.504;2024-02-15T00:50:03;7.60;;;3.95;;
80193;SDS011;69515;42.072;21.504;2024-02-15T00:54:56;7.43;;;4.25;;
80193;SDS011;69515;42.072;21.504;2024-02-15T00:57:22;9.55;;;5.07;;
80193;SDS011;69515;42.072;21.504;2024-02-15T00:59:48;10.23;;;5.65;;
80193;SDS011;69515;42.072;21.504;2024-02-15T01:02:15;8.43;;;5.30;;
80193;SDS011;69515;42.072;21.504;2024-02-15T01:04:43;8.70;;;5.57;;
80193;SDS011;69515;42.072;21.504;2024-02-15T01:07:11;7.90;;;4.38;;
80193;SDS011;69515;42.072;21.504;2024-02-15T01:09:37;7.78;;;4.47;;
80193;SDS011;69515;42.072;21.504;2024-02-15T01:12:03;9.27;;;5.03;;
80193;SDS011;69515;42.072;21.504;2024-02-15T01:14:30;6.68;;;4.47;;
80193;SDS011;69515;42.072;21.504;2024-02-15T01:16:57;7.70;;;4.03;;
80193;SDS011;69515;42.072;21.504;2024-02-15T01:19:23;7.50;;;4.50;;
80193;SDS011;69515;42.072;21.504;2024-02-15T01:21:49;7.88;;;4.53;;
80193;SDS011;69515;42.072;21.504;2024-02-15T01:24:16;8.48;;;4.43;;
80193;SDS011;69515;42.072;21.504;2024-02-15T01:26:42;7.38;;;4.45;;
80193;SDS011;69515;42.072;21.504;2024-02-15T01:29:08;7.32;;;3.83;;
80193;SDS011;69515;42.072;21.504;2024-02-15T01:31:37;10.45;;;5.22;;
80193;SDS011;69515;42.072;21.504;2024-02-15T01:34:04;7.85;;;4.63;;
80193;SDS011;69515;42.072;21.504;2024-02-15T01:38:56;8.00;;;4.63;;
80193;SDS011;69515;42.072;21.504;2024-02-15T01:41:22;8.75;;;4.93;;
80193;SDS011;69515;42.072;21.504;2024-02-15T01:43:48;9.90;;;5.03;;
80193;SDS011;69515;42.072;21.504;2024-02-15T01:46:15;9.48;;;5.15;;
80193;SDS011;69515;42.072;21.504;2024-02-15T01:51:07;7.60;;;4.07;;
80193;SDS011;69515;42.072;21.504;2024-02-15T01:53:35;7.72;;;4.43;;
80193;SDS011;69515;42.072;21.504;2024-02-15T01:56:02;8.55;;;4.80;;
80193;SDS011;69515;42.072;21.504;2024-02-15T01:58:28;9.20;;;5.18;;
80193;SDS011;69515;42.072;21.504;2024-02-15T02:00:59;8.18;;;4.50;;
80193;SDS011;69515;42.072;21.504;2024-02-15T02:03:29;8.23;;;4.75;;
80193;SDS011;69515;42.072;21.504;2024-02-15T02:08:21;7.97;;;4.60;;
80193;SDS011;69515;42.072;21.504;2024-02-15T02:10:47;8.40;;;4.60;;
80193;SDS011;69515;42.072;21.504;2024-02-15T02:15:40;8.57;;;5.07;;
80193;SDS011;69515;42.072;21.504;2024-02-15T02:18:06;11.02;;;5.60;;
80193;SDS011;69515;42.072;21.504;2024-02-15T02:20:36;9.60;;;5.00;;
80193;SDS011;69515;42.072;21.504;2024-02-15T02:23:15;9.88;;;5.30;;
80193;SDS011;69515;42.072;21.504;2024-02-15T02:25:44;8.23;;;4.40;;
80193;SDS011;69515;42.072;21.504;2024-02-15T02:28:14;8.45;;;4.97;;
80193;SDS011;69515;42.072;21.504;2024-02-15T02:30:44;7.03;;;4.45;;
80193;SDS011;69515;42.072;21.504;2024-02-15T02:35:36;9.57;;;4.90;;
80193;SDS011;69515;42.072;21.504;2024-02-15T02:38:02;8.18;;;4.25;;
80193;SDS011;69515;42.072;21.504;2024-02-15T02:42:55;8.43;;;4.40;;
80193;SDS011;69515;42.072;21.504;2024-02-15T02:45:22;9.18;;;5.00;;
80193;SDS011;69515;42.072;21.504;2024-02-15T02:47:48;9.07;;;5.00;;
80193;SDS011;69515;42.072;21.504;2024-02-15T02:50:15;8.25;;;4.50;;
80193;SDS011;69515;42.072;21.504;2024-02-15T02:55:07;6.97;;;4.00;;
80193;SDS011;69515;42.072;21.504;2024-02-15T02:57:37;7.50;;;4.53;;
80193;SDS011;69515;42.072;21.504;2024-02-15T03:00:06;8.68;;;5.07;;
80193;SDS011;69515;42.072;21.504;2024-02-15T03:02:34;8.80;;;4.70;;
80193;SDS011;69515;42.072;21.504;2024-02-15T03:05:03;8.77;;;4.55;;
80193;SDS011;69515;42.072;21.504;2024-02-15T03:07:33;8.68;;;4.82;;
80193;SDS011;69515;42.072;21.504;2024-02-15T03:09:59;9.25;;;4.93;;
80193;SDS011;69515;42.072;21.504;2024-02-15T03:12:25;8.20;;;4.50;;
80193;SDS011;69515;42.072;21.504;2024-02-15T03:14:52;8.00;;;4.32;;
80193;SDS011;69515;42.072;21.504;2024-02-15T03:17:20;7.82;;;4.55;;
80193;SDS011;69515;42.072;21.504;2024-02-15T03:19:46;8.50;;;4.70;;
80193;SDS011;69515;42.072;21.504;2024-02-15T03:22:14;7.20;;;4.43;;
80193;SDS011;69515;42.072;21.504;2024-02-15T03:24:40;8.38;;;4.30;;
80193;SDS011;69515;42.072;21.504;2024-02-15T03:27:08;8.88;;;4.68;;
80193;SDS011;69515;42.072;21.504;2024-02-15T03:29:35;8.20;;;4.45;;
80193;SDS011;69515;42.072;21.504;2024-02-15T03:32:02;11.93;;;4.72;;
80193;SDS011;69515;42.072;21.504;2024-02-15T03:34:29;10.45;;;4.85;;
80193;SDS011;69515;42.072;21.504;2024-02-15T03:36:56;8.07;;;4.35;;
80193;SDS011;69515;42.072;21.504;2024-02-15T03:41:49;9.23;;;4.40;;
80193;SDS011;69515;42.072;21.504;2024-02-15T03:44:16;8.60;;;4.95;;
80193;SDS011;69515;42.072;21.504;2024-02-15T03:46:43;10.48;;;5.20;;
80193;SDS011;69515;42.072;21.504;2024-02-15T03:49:19;7.55;;;4.28;;
80193;SDS011;69515;42.072;21.504;2024-02-15T03:51:45;9.23;;;4.95;;
80193;SDS011;69515;42.072;21.504;2024-02-15T03:54:12;11.07;;;5.13;;
80193;SDS011;69515;42.072;21.504;2024-02-15T03:56:48;9.50;;;4.80;;
80193;SDS011;69515;42.072;21.504;2024-02-15T03:59:16;8.35;;;4.30;;
80193;SDS011;69515;42.072;21.504;2024-02-15T04:01:46;7.80;;;4.43;;
80193;SDS011;69515;42.072;21.504;2024-02-15T04:04:13;9.02;;;4.75;;
80193;SDS011;69515;42.072;21.504;2024-02-15T04:06:39;8.45;;;4.90;;
80193;SDS011;69515;42.072;21.504;2024-02-15T04:09:06;8.48;;;4.80;;
80193;SDS011;69515;42.072;21.504;2024-02-15T04:11:32;8.68;;;4.90;;
80193;SDS011;69515;42.072;21.504;2024-02-15T04:13:59;8.38;;;4.40;;
80193;SDS011;69515;42.072;21.504;2024-02-15T04:16:25;8.45;;;4.75;;
80193;SDS011;69515;42.072;21.504;2024-02-15T04:18:51;8.38;;;4.70;;
80193;SDS011;69515;42.072;21.504;2024-02-15T04:21:18;8.15;;;4.65;;
80193;SDS011;69515;42.072;21.504;2024-02-15T04:23:45;10.23;;;5.00;;
80193;SDS011;69515;42.072;21.504;2024-02-15T04:26:11;9.15;;;5.05;;
80193;SDS011;69515;42.072;21.504;2024-02-15T04:28:40;8.85;;;4.97;;
80193;SDS011;69515;42.072;21.504;2024-02-15T04:31:07;8.00;;;4.30;;
80193;SDS011;69515;42.072;21.504;2024-02-15T04:35:59;12.55;;;5.10;;
80193;SDS011;69515;42.072;21.504;2024-02-15T04:38:29;8.57;;;5.15;;
80193;SDS011;69515;42.072;21.504;2024-02-15T04:40:55;8.57;;;4.97;;
80193;SDS011;69515;42.072;21.504;2024-02-15T04:43:22;9.98;;;5.32;;
80193;SDS011;69515;42.072;21.504;2024-02-15T04:45:49;8.98;;;4.80;;
80193;SDS011;69515;42.072;21.504;2024-02-15T04:48:16;9.40;;;4.57;;
80193;SDS011;69515;42.072;21.504;2024-02-15T04:50:44;9.02;;;4.82;;
80193;SDS011;69515;42.072;21.504;2024-02-15T04:55:36;9.00;;;4.45;;
80193;SDS011;69515;42.072;21.504;2024-02-15T04:58:03;9.27;;;5.18;;
80193;SDS011;69515;42.072;21.504;2024-02-15T05:00:30;9.65;;;5.15;;
80193;SDS011;69515;42.072;21.504;2024-02-15T05:02:57;6.93;;;4.10;;
80193;SDS011;69515;42.072;21.504;2024-02-15T05:05:23;9.98;;;5.03;;
80193;SDS011;69515;42.072;21.504;2024-02-15T05:07:51;9.25;;;5.00;;
80193;SDS011;69515;42.072;21.504;2024-02-15T05:10:18;10.23;;;5.20;;
80193;SDS011;69515;42.072;21.504;2024-02-15T05:12:44;11.60;;;5.30;;
80193;SDS011;69515;42.072;21.504;2024-02-15T05:15:13;10.73;;;4.80;;
80193;SDS011;69515;42.072;21.504;2024-02-15T05:17:42;9.43;;;4.88;;
80193;SDS011;69515;42.072;21.504;2024-02-15T05:20:09;9.38;;;5.20;;
80193;SDS011;69515;42.072;21.504;2024-02-15T05:22:37;9.30;;;4.85;;
80193;SDS011;69515;42.072;21.504;2024-02-15T05:25:04;9.23;;;5.43;;
80193;SDS011;69515;42.072;21.504;2024-02-15T05:27:31;10.73;;;5.65;;
80193;SDS011;69515;42.072;21.504;2024-02-15T05:29:58;12.95;;;5.03;;
80193;SDS011;69515;42.072;21.504;2024-02-15T05:32:24;8.80;;;5.22;;
80193;SDS011;69515;42.072;21.504;2024-02-15T05:34:51;8.85;;;4.97;;
80193;SDS011;69515;42.072;21.504;2024-02-15T05:37:20;9.18;;;4.72;;
80193;SDS011;69515;42.072;21.504;2024-02-15T05:42:14;9.95;;;5.15;;
80193;SDS011;69515;42.072;21.504;2024-02-15T05:44:40;10.77;;;5.22;;
80193;SDS011;69515;42.072;21.504;2024-02-15T05:49:33;10.55;;;5.00;;
80193;SDS011;69515;42.072;21.504;2024-02-15T05:51:59;9.40;;;5.00;;
80193;SDS011;69515;42.072;21.504;2024-02-15T05:54:25;10.45;;;5.30;;
80193;SDS011;69515;42.072;21.504;2024-02-15T05:56:52;8.88;;;4.72;;
80193;SDS011;69515;42.072;21.504;2024-02-15T05:59:20;11.00;;;5.22;;
80193;SDS011;69515;42.072;21.504;2024-02-15T06:01:47;8.95;;;5.03;;
80193;SDS011;69515;42.072;21.504;2024-02-15T06:04:14;8.30;;;5.03;;
80193;SDS011;69515;42.072;21.504;2024-02-15T06:06:42;9.30;;;5.00;;
80193;SDS011;69515;42.072;21.504;2024-02-15T06:11:34;8.00;;;4.47;;
80193;SDS011;69515;42.072;21.504;2024-02-15T06:14:02;8.30;;;4.00;;
80193;SDS011;69515;42.072;21.504;2024-02-15T06:16:28;7.20;;;3.90;;
80193;SDS011;69515;42.072;21.504;2024-02-15T06:18:54;8.25;;;4.28;;
80193;SDS011;69515;42.072;21.504;2024-02-15T06:21:21;7.85;;;4.63;;
80193;SDS011;69515;42.072;21.504;2024-02-15T06:23:49;6.95;;;4.18;;
80193;SDS011;69515;42.072;21.504;2024-02-15T06:26:16;7.53;;;4.00;;
80193;SDS011;69515;42.072;21.504;2024-02-15T06:28:42;6.57;;;3.88;;
80193;SDS011;69515;42.072;21.504;2024-02-15T06:31:27;7.30;;;4.00;;
80193;SDS011;69515;42.072;21.504;2024-02-15T06:34:29;6.03;;;3.60;;
80193;SDS011;69515;42.072;21.504;2024-02-15T06:37:34;7.60;;;4.97;;
80193;SDS011;69515;42.072;21.504;2024-02-15T06:40:18;7.15;;;4.13;;
80193;SDS011;69515;42.072;21.504;2024-02-15T06:42:44;7.43;;;4.50;;
80193;SDS011;69515;42.072;21.504;2024-02-15T06:45:11;7.15;;;3.95;;
80193;SDS011;69515;42.072;21.504;2024-02-15T06:47:41;7.88;;;4.40;;
80193;SDS011;69515;42.072;21.504;2024-02-15T06:50:12;9.98;;;6.07;;
80193;SDS011;69515;42.072;21.504;2024-02-15T06:52:41;9.30;;;5.40;;
80193;SDS011;69515;42.072;21.504;2024-02-15T06:55:08;8.90;;;4.85;;
80193;SDS011;69515;42.072;21.504;2024-02-15T06:57:40;13.25;;;8.65;;
80193;SDS011;69515;42.072;21.504;2024-02-15T07:00:10;10.88;;;7.13;;
80193;SDS011;69515;42.072;21.504;2024-02-15T07:02:40;13.45;;;8.00;;
80193;SDS011;69515;42.072;21.504;2024-02-15T07:05:13;10.93;;;6.25;;
80193;SDS011;69515;42.072;21.504;2024-02-15T07:07:42;11.07;;;6.93;;
80193;SDS011;69515;42.072;21.504;2024-02-15T07:12:35;13.52;;;7.53;;
80193;SDS011;69515;42.072;21.504;2024-02-15T07:15:03;15.68;;;9.13;;
80193;SDS011;69515;42.072;21.504;2024-02-15T07:17:32;13.70;;;7.57;;
80193;SDS011;69515;42.072;21.504;2024-02-15T07:19:58;14.35;;;7.47;;
80193;SDS011;69515;42.072;21.504;2024-02-15T07:22:24;16.60;;;7.43;;
80193;SDS011;69515;42.072;21.504;2024-02-15T07:24:50;16.10;;;8.52;;
80193;SDS011;69515;42.072;21.504;2024-02-15T07:27:17;14.50;;;8.27;;
80193;SDS011;69515;42.072;21.504;2024-02-15T07:29:43;16.00;;;8.98;;
80193;SDS011;69515;42.072;21.504;2024-02-15T07:32:09;15.93;;;8.63;;
80193;SDS011;69515;42.072;21.504;2024-02-15T07:34:37;12.68;;;7.97;;
80193;SDS011;69515;42.072;21.504;2024-02-15T07:39:31;13.07;;;6.82;;
80193;SDS011;69515;42.072;21.504;2024-02-15T07:41:57;11.13;;;6.80;;
80193;SDS011;69515;42.072;21.504;2024-02-15T07:44:24;11.60;;;6.97;;
80193;SDS011;69515;42.072;21.504;2024-02-15T07:46:52;14.63;;;7.70;;
80193;SDS011;69515;42.072;21.504;2024-02-15T07:49:19;12.30;;;7.25;;
80193;SDS011;69515;42.072;21.504;2024-02-15T07:51:46;12.80;;;7.22;;
80193;SDS011;69515;42.072;21.504;2024-02-15T07:54:32;12.98;;;7.05;;
80193;SDS011;69515;42.072;21.504;2024-02-15T07:56:59;15.52;;;7.60;;
80193;SDS011;69515;42.072;21.504;2024-02-15T07:59:26;10.35;;;6.57;;
80193;SDS011;69515;42.072;21.504;2024-02-15T08:01:54;11.55;;;6.60;;
80193;SDS011;69515;42.072;21.504;2024-02-15T08:04:21;9.80;;;6.25;;
80193;SDS011;69515;42.072;21.504;2024-02-15T08:06:48;12.70;;;6.72;;
80193;SDS011;69515;42.072;21.504;2024-02-15T08:09:16;10.27;;;6.28;;
80193;SDS011;69515;42.072;21.504;2024-02-15T08:11:43;11.20;;;6.03;;
80193;SDS011;69515;42.072;21.504;2024-02-15T08:14:09;8.30;;;5.45;;
80193;SDS011;69515;42.072;21.504;2024-02-15T08:16:36;12.68;;;6.85;;
80193;SDS011;69515;42.072;21.504;2024-02-15T08:19:05;10.50;;;6.18;;
80193;SDS011;69515;42.072;21.504;2024-02-15T08:21:32;10.18;;;5.47;;
80193;SDS011;69515;42.072;21.504;2024-02-15T08:24:02;9.15;;;5.30;;
80193;SDS011;69515;42.072;21.504;2024-02-15T08:26:32;11.63;;;5.72;;
80193;SDS011;69515;42.072;21.504;2024-02-15T08:29:00;8.95;;;5.43;;
80193;SDS011;69515;42.072;21.504;2024-02-15T08:33:52;8.52;;;5.78;;
80193;SDS011;69515;42.072;21.504;2024-02-15T08:36:19;9.52;;;5.60;;
80193;SDS011;69515;42.072;21.504;2024-02-15T08:39:06;11.35;;;6.95;;
80193;SDS011;69515;42.072;21.504;2024-02-15T08:41:44;10.45;;;5.68;;
80193;SDS011;69515;42.072;21.504;2024-02-15T08:44:11;10.38;;;5.68;;
80193;SDS011;69515;42.072;21.504;2024-02-15T08:46:42;11.90;;;6.40;;
80193;SDS011;69515;42.072;21.504;2024-02-15T08:49:09;11.07;;;5.63;;
80193;SDS011;69515;42.072;21.504;2024-02-15T08:51:38;10.32;;;5.80;;
80193;SDS011;69515;42.072;21.504;2024-02-15T08:54:05;12.93;;;5.97;;
80193;SDS011;69515;42.072;21.504;2024-02-15T08:56:31;10.20;;;5.18;;
80193;SDS011;69515;42.072;21.504;2024-02-15T08:58:58;10.90;;;5.63;;
80193;SDS011;69515;42.072;21.504;2024-02-15T09:01:25;19.42;;;7.25;;
80193;SDS011;69515;42.072;21.504;2024-02-15T09:04:11;11.13;;;6.15;;
80193;SDS011;69515;42.072;21.504;2024-02-15T09:06:38;11.43;;;6.40;;
80193;SDS011;69515;42.072;21.504;2024-02-15T09:09:04;12.43;;;7.18;;
80193;SDS011;69515;42.072;21.504;2024-02-15T09:11:30;13.43;;;6.47;;
80193;SDS011;69515;42.072;21.504;2024-02-15T09:13:56;11.65;;;6.50;;
80193;SDS011;69515;42.072;21.504;2024-02-15T09:16:23;15.35;;;6.65;;
80193;SDS011;69515;42.072;21.504;2024-02-15T09:18:49;10.25;;;5.65;;
80193;SDS011;69515;42.072;21.504;2024-02-15T09:21:15;14.77;;;7.55;;
80193;SDS011;69515;42.072;21.504;2024-02-15T09:23:42;15.95;;;7.85;;
80193;SDS011;69515;42.072;21.504;2024-02-15T09:26:08;15.13;;;7.53;;
80193;SDS011;69515;42.072;21.504;2024-02-15T09:28:35;14.13;;;7.53;;
80193;SDS011;69515;42.072;21.504;2024-02-15T09:31:02;13.95;;;7.22;;
80193;SDS011;69515;42.072;21.504;2024-02-15T09:33:28;15.40;;;7.40;;
80193;SDS011;69515;42.072;21.504;2024-02-15T09:35:55;13.02;;;7.47;;
80193;SDS011;69515;42.072;21.504;2024-02-15T09:38:21;11.13;;;6.13;;
80193;SDS011;69515;42.072;21.504;2024-02-15T09:40:50;10.02;;;5.72;;
80193;SDS011;69515;42.072;21.504;2024-02-15T09:43:16;12.25;;;5.85;;
80193;SDS011;69515;42.072;21.504;2024-02-15T09:45:43;8.70;;;5.20;;
80193;SDS011;69515;42.072;21.504;2024-02-15T09:48:09;17.60;;;6.20;;
80193;SDS011;69515;42.072;21.504;2024-02-15T09:50:39;9.82;;;5.50;;
80193;SDS011;69515;42.072;21.504;2024-02-15T09:53:07;12.00;;;5.88;;
80193;SDS011;69515;42.072;21.504;2024-02-15T09:55:34;9.73;;;5.95;;
80193;SDS011;69515;42.072;21.504;2024-02-15T09:58:01;9.73;;;5.55;;
80193;SDS011;69515;42.072;21.504;2024-02-15T10:00:30;12.77;;;5.50;;
80193;SDS011;69515;42.072;21.504;2024-02-15T10:02:57;9.18;;;5.18;;
80193;SDS011;69515;42.072;21.504;2024-02-15T10:05:26;10.95;;;5.75;;
80193;SDS011;69515;42.072;21.504;2024-02-15T10:07:53;9.15;;;5.28;;
80193;SDS011;69515;42.072;21.504;2024-02-15T10:10:20;9.75;;;5.45;;
80193;SDS011;69515;42.072;21.504;2024-02-15T10:13:04;15.75;;;5.97;;
80193;SDS011;69515;42.072;21.504;2024-02-15T10:15:33;11.30;;;5.80;;
80193;SDS011;69515;42.072;21.504;2024-02-15T10:18:01;9.52;;;5.15;;
80193;SDS011;69515;42.072;21.504;2024-02-15T10:20:28;8.75;;;5.35;;
80193;SDS011;69515;42.072;21.504;2024-02-15T10:25:25;11.18;;;4.97;;
80193;SDS011;69515;42.072;21.504;2024-02-15T10:28:11;9.40;;;4.70;;
80193;SDS011;69515;42.072;21.504;2024-02-15T10:30:41;8.82;;;5.22;;
80193;SDS011;69515;42.072;21.504;2024-02-15T10:33:26;12.45;;;5.18;;
80193;SDS011;69515;42.072;21.504;2024-02-15T10:36:08;11.45;;;5.25;;
80193;SDS011;69515;42.072;21.504;2024-02-15T10:38:36;16.08;;;5.70;;
80193;SDS011;69515;42.072;21.504;2024-02-15T10:41:04;10.95;;;5.18;;
80193;SDS011;69515;42.072;21.504;2024-02-15T10:43:30;12.30;;;5.63;;
80193;SDS011;69515;42.072;21.504;2024-02-15T10:45:57;11.70;;;6.03;;
80193;SDS011;69515;42.072;21.504;2024-02-15T10:48:24;11.63;;;5.25;;
80193;SDS011;69515;42.072;21.504;2024-02-15T10:50:50;9.85;;;5.50;;
80193;SDS011;69515;42.072;21.504;2024-02-15T10:55:58;8.23;;;4.93;;
80193;SDS011;69515;42.072;21.504;2024-02-15T10:58:26;8.20;;;4.47;;
80193;SDS011;69515;42.072;21.504;2024-02-15T11:00:54;9.80;;;5.25;;
80193;SDS011;69515;42.072;21.504;2024-02-15T11:03:29;11.52;;;4.95;;
80193;SDS011;69515;42.072;21.504;2024-02-15T11:05:56;8.40;;;4.72;;
80193;SDS011;69515;42.072;21.504;2024-02-15T11:08:25;9.05;;;5.47;;
80193;SDS011;69515;42.072;21.504;2024-02-15T11:10:52;9.90;;;5.00;;
80193;SDS011;69515;42.072;21.504;2024-02-15T11:13:24;8.32;;;4.93;;
80193;SDS011;69515;42.072;21.504;2024-02-15T11:15:50;8.55;;;4.95;;
80193;SDS011;69515;42.072;21.504;2024-02-15T11:21:03;7.72;;;4.07;;
80193;SDS011;69515;42.072;21.504;2024-02-15T11:23:29;8.23;;;4.70;;
80193;SDS011;69515;42.072;21.504;2024-02-15T11:25:55;9.60;;;4.68;;
80193;SDS011;69515;42.072;21.504;2024-02-15T11:30:54;8.15;;;4.47;;
80193;SDS011;69515;42.072;21.504;2024-02-15T11:33:30;8.52;;;4.72;;
80193;SDS011;69515;42.072;21.504;2024-02-15T11:36:04;13.35;;;5.05;;
80193;SDS011;69515;42.072;21.504;2024-02-15T11:38:35;9.95;;;4.63;;
80193;SDS011;69515;42.072;21.504;2024-02-15T11:41:07;8.95;;;4.63;;
80193;SDS011;69515;42.072;21.504;2024-02-15T11:46:14;10.75;;;4.80;;
80193;SDS011;69515;42.072;21.504;2024-02-15T11:48:44;7.65;;;4.75;;
80193;SDS011;69515;42.072;21.504;2024-02-15T11:51:27;9.85;;;4.82;;
80193;SDS011;69515;42.072;21.504;2024-02-15T11:54:05;9.90;;;5.43;;
80193;SDS011;69515;42.072;21.504;2024-02-15T11:56:48;10.52;;;5.30;;
80193;SDS011;69515;42.072;21.504;2024-02-15T11:59:20;8.80;;;4.65;;
80193;SDS011;69515;42.072;21.504;2024-02-15T12:01:58;8.20;;;4.47;;
80193;SDS011;69515;42.072;21.504;2024-02-15T12:04:43;7.00;;;4.03;;
80193;SDS011;69515;42.072;21.504;2024-02-15T12:07:28;9.77;;;4.53;;
80193;SDS011;69515;42.072;21.504;2024-02-15T12:10:16;8.38;;;4.65;;
80193;SDS011;69515;42.072;21.504;2024-02-15T12:13:01;8.68;;;4.40;;
80193;SDS011;69515;42.072;21.504;2024-02-15T12:15:58;9.10;;;4.25;;
80193;SDS011;69515;42.072;21.504;2024-02-15T12:18:44;8.68;;;4.75;;
80193;SDS011;69515;42.072;21.504;2024-02-15T12:21:16;10.98;;;4.47;;
80193;SDS011;69515;42.072;21.504;2024-02-15T12:23:44;7.63;;;4.05;;
80193;SDS011;69515;42.072;21.504;2024-02-15T12:26:11;10.07;;;4.57;;
80193;SDS011;69515;42.072;21.504;2024-02-15T12:29:01;9.00;;;4.15;;
80193;SDS011;69515;42.072;21.504;2024-02-15T12:31:27;12.73;;;5.50;;
80193;SDS011;69515;42.072;21.504;2024-02-15T12:34:03;6.43;;;3.83;;
80193;SDS011;69515;42.072;21.504;2024-02-15T12:36:36;8.07;;;4.00;;
80193;SDS011;69515;42.072;21.504;2024-02-15T12:39:03;6.60;;;4.00;;
80193;SDS011;69515;42.072;21.504;2024-02-15T12:41:39;7.28;;;4.00;;
80193;SDS011;69515;42.072;21.504;2024-02-15T12:44:06;8.35;;;4.00;;
80193;SDS011;69515;42.072;21.504;2024-02-15T12:46:36;9.23;;;3.50;;
80193;SDS011;69515;42.072;21.504;2024-02-15T12:49:07;8.13;;;4.72;;
80193;SDS011;69515;42.072;21.504;2024-02-15T12:51:33;8.57;;;4.05;;
80193;SDS011;69515;42.072;21.504;2024-02-15T12:54:09;7.38;;;3.95;;
80193;SDS011;69515;42.072;21.504;2024-02-15T12:56:36;6.95;;;4.03;;
80193;SDS011;69515;42.072;21.504;2024-02-15T12:59:02;6.32;;;3.42;;
80193;SDS011;69515;42.072;21.504;2024-02-15T13:01:28;7.45;;;3.88;;
80193;SDS011;69515;42.072;21.504;2024-02-15T13:03:55;8.05;;;3.72;;
80193;SDS011;69515;42.072;21.504;2024-02-15T13:07:01;7.90;;;3.80;;
80193;SDS011;69515;42.072;21.504;2024-02-15T13:09:27;8.15;;;3.58;;
80193;SDS011;69515;42.072;21.504;2024-02-15T13:11:53;7.82;;;3.83;;
80193;SDS011;69515;42.072;21.504;2024-02-15T13:14:19;6.97;;;3.35;;
80193;SDS011;69515;42.072;21.504;2024-02-15T13:16:46;10.63;;;4.65;;
80193;SDS011;69515;42.072;21.504;2024-02-15T13:19:14;6.97;;;4.43;;
80193;SDS011;69515;42.072;21.504;2024-02-15T13:21:40;11.35;;;4.53;;
80193;SDS011;69515;42.072;21.504;2024-02-15T13:24:06;7.43;;;3.30;;
80193;SDS011;69515;42.072;21.504;2024-02-15T13:26:35;7.47;;;4.07;;
80193;SDS011;69515;42.072;21.504;2024-02-15T13:29:01;9.85;;;4.25;;
80193;SDS011;69515;42.072;21.504;2024-02-15T13:31:31;8.38;;;3.50;;
80193;SDS011;69515;42.072;21.504;2024-02-15T13:34:00;7.55;;;3.50;;
80193;SDS011;69515;42.072;21.504;2024-02-15T13:36:26;8.55;;;4.30;;
80193;SDS011;69515;42.072;21.504;2024-02-15T13:38:53;6.38;;;2.90;;
80193;SDS011;69515;42.072;21.504;2024-02-15T13:41:20;8.38;;;3.35;;
80193;SDS011;69515;42.072;21.504;2024-02-15T13:43:47;10.63;;;3.55;;
80193;SDS011;69515;42.072;21.504;2024-02-15T13:46:17;7.03;;;3.20;;
80193;SDS011;69515;42.072;21.504;2024-02-15T13:48:45;9.05;;;4.00;;
80193;SDS011;69515;42.072;21.504;2024-02-15T13:51:11;7.85;;;3.70;;
80193;SDS011;69515;42.072;21.504;2024-02-15T13:53:39;6.20;;;3.10;;
80193;SDS011;69515;42.072;21.504;2024-02-15T13:56:06;9.93;;;3.30;;
80193;SDS011;69515;42.072;21.504;2024-02-15T13:58:32;10.25;;;4.70;;
80193;SDS011;69515;42.072;21.504;2024-02-15T14:00:58;8.15;;;3.85;;
80193;SDS011;69515;42.072;21.504;2024-02-15T14:03:28;12.40;;;4.30;;
80193;SDS011;69515;42.072;21.504;2024-02-15T14:05:54;7.50;;;3.05;;
80193;SDS011;69515;42.072;21.504;2024-02-15T14:08:20;7.53;;;3.58;;
80193;SDS011;69515;42.072;21.504;2024-02-15T14:10:47;7.70;;;3.15;;
80193;SDS011;69515;42.072;21.504;2024-02-15T14:13:14;9.40;;;3.97;;
80193;SDS011;69515;42.072;21.504;2024-02-15T14:15:40;6.95;;;3.28;;
80193;SDS011;69515;42.072;21.504;2024-02-15T14:18:09;9.55;;;4.45;;
80193;SDS011;69515;42.072;21.504;2024-02-15T14:20:45;7.68;;;4.30;;
80193;SDS011;69515;42.072;21.504;2024-02-15T14:23:12;9.55;;;3.97;;
80193;SDS011;69515;42.072;21.504;2024-02-15T14:25:39;9.85;;;3.75;;
80193;SDS011;69515;42.072;21.504;2024-02-15T14:28:05;8.90;;;3.97;;
80193;SDS011;69515;42.072;21.504;2024-02-15T14:30:35;9.02;;;3.63;;
80193;SDS011;69515;42.072;21.504;2024-02-15T14:33:19;10.52;;;3.47;;
80193;SDS011;69515;42.072;21.504;2024-02-15T14:35:48;8.55;;;3.60;;
80193;SDS011;69515;42.072;21.504;2024-02-15T14:38:14;7.50;;;3.00;;
80193;SDS011;69515;42.072;21.504;2024-02-15T14:40:44;9.02;;;4.45;;
80193;SDS011;69515;42.072;21.504;2024-02-15T14:43:25;8.57;;;3.50;;
80193;SDS011;69515;42.072;21.504;2024-02-15T14:45:53;7.22;;;3.85;;
80193;SDS011;69515;42.072;21.504;2024-02-15T14:48:21;9.88;;;4.57;;
80193;SDS011;69515;42.072;21.504;2024-02-15T14:50:49;7.70;;;4.10;;
80193;SDS011;69515;42.072;21.504;2024-02-15T14:53:15;8.00;;;3.90;;
80193;SDS011;69515;42.072;21.504;2024-02-15T14:55:43;7.10;;;3.30;;
80193;SDS011;69515;42.072;21.504;2024-02-15T14:58:12;8.05;;;4.25;;
80193;SDS011;69515;42.072;21.504;2024-02-15T15:00:40;11.35;;;4.32;;
80193;SDS011;69515;42.072;21.504;2024-02-15T15:03:08;7.72;;;4.18;;
80193;SDS011;69515;42.072;21.504;2024-02-15T15:05:37;8.32;;;4.45;;
80193;SDS011;69515;42.072;21.504;2024-02-15T15:08:24;9.90;;;4.22;;
80193;SDS011;69515;42.072;21.504;2024-02-15T15:11:08;9.45;;;5.13;;
80193;SDS011;69515;42.072;21.504;2024-02-15T15:13:53;9.30;;;4.57;;
80193;SDS011;69515;42.072;21.504;2024-02-15T15:16:19;10.50;;;4.32;;
80193;SDS011;69515;42.072;21.504;2024-02-15T15:18:47;8.75;;;4.45;;
80193;SDS011;69515;42.072;21.504;2024-02-15T15:21:15;10.30;;;5.45;;
80193;SDS011;69515;42.072;21.504;2024-02-15T15:23:42;9.00;;;5.10;;
80193;SDS011;69515;42.072;21.504;2024-02-15T15:26:08;9.32;;;4.78;;
80193;SDS011;69515;42.072;21.504;2024-02-15T15:28:37;10.50;;;5.85;;
80193;SDS011;69515;42.072;21.504;2024-02-15T15:31:04;10.88;;;5.65;;
80193;SDS011;69515;42.072;21.504;2024-02-15T15:33:32;12.88;;;5.97;;
80193;SDS011;69515;42.072;21.504;2024-02-15T15:36:01;7.55;;;4.13;;
80193;SDS011;69515;42.072;21.504;2024-02-15T15:38:30;13.23;;;6.70;;
80193;SDS011;69515;42.072;21.504;2024-02-15T15:40:58;9.85;;;5.30;;
80193;SDS011;69515;42.072;21.504;2024-02-15T15:43:26;8.80;;;4.40;;